createdAt,value
2023-04-20T00:00:45.407Z,68.49
2023-04-20T00:01:45.391Z,67.36
2023-04-20T00:02:45.478Z,67.53
2023-04-20T00:03:45.574Z,67.74
2023-04-20T00:04:45.356Z,68.05
2023-04-20T00:05:45.351Z,67.43
2023-04-20T00:06:45.339Z,67.12
2023-04-20T00:07:45.320Z,67.43
2023-04-20T00:08:45.333Z,67.33
2023-04-20T00:09:45.276Z,67.53
2023-04-20T00:10:45.294Z,67.63
2023-04-20T00:11:45.301Z,67.02
2023-04-20T00:12:45.279Z,66.61
2023-04-20T00:13:45.231Z,65.37
2023-04-20T00:14:45.228Z,64.96
2023-04-20T00:15:45.216Z,65.16
2023-04-20T00:16:45.260Z,65.16
2023-04-20T00:17:45.233Z,64.75
2023-04-20T00:18:45.193Z,65.37
2023-04-20T00:19:45.188Z,65.58
2023-04-20T00:20:45.206Z,65.37
2023-04-20T00:21:45.163Z,65.65
2023-04-20T00:22:45.164Z,65.78
2023-04-20T00:23:45.133Z,66.16
2023-04-20T00:24:45.118Z,65.95
2023-04-20T00:25:45.117Z,65.65
2023-04-20T00:26:45.117Z,65.78
2023-04-20T00:27:45.082Z,67.09
2023-04-20T00:28:45.078Z,67.12
2023-04-20T00:29:45.124Z,65.99
2023-04-20T00:30:45.105Z,67.57
2023-04-20T00:31:45.045Z,67.46
2023-04-20T00:32:45.099Z,67.15
2023-04-20T00:33:45.030Z,67.25
2023-04-20T00:34:45.018Z,68.62
2023-04-20T00:35:44.997Z,68.08
2023-04-20T00:36:45.005Z,68.73
2023-04-20T00:37:44.986Z,68.52
2023-04-20T00:38:44.965Z,68.32
2023-04-20T00:39:44.993Z,68.62
2023-04-20T00:40:44.935Z,69.14
2023-04-20T00:41:44.992Z,69.24
2023-04-20T00:42:44.933Z,68.52
2023-04-20T00:43:45.004Z,69.04
2023-04-20T00:44:44.916Z,68.62
2023-04-20T00:45:44.926Z,69.86
2023-04-20T00:46:45.244Z,70.07
2023-04-20T00:47:45.003Z,69.96
2023-04-20T00:48:44.871Z,69.96
2023-04-20T00:49:44.936Z,69.76
2023-04-20T00:50:44.942Z,69.86
2023-04-20T00:51:44.938Z,69.04
2023-04-20T00:52:44.928Z,69.65
2023-04-20T00:53:44.815Z,70.07
2023-04-20T00:54:44.883Z,70.17
2023-04-20T00:55:44.793Z,69.86
2023-04-20T00:56:44.759Z,69.96
2023-04-20T00:57:44.755Z,70.07
2023-04-20T00:58:44.749Z,70.07
2023-04-20T00:59:44.734Z,68.83
2023-04-20T01:00:44.728Z,68.83
2023-04-20T01:01:44.779Z,68.52
2023-04-20T01:02:44.793Z,68.52
2023-04-20T01:03:44.902Z,68.93
2023-04-20T01:04:44.673Z,69.24
2023-04-20T01:05:44.713Z,69.86
2023-04-20T01:06:44.653Z,68.52
2023-04-20T01:07:44.648Z,68.62
2023-04-20T01:08:44.713Z,69.86
2023-04-20T01:09:44.643Z,69.76
2023-04-20T01:10:44.622Z,69.96
2023-04-20T01:11:44.603Z,69.65
2023-04-20T01:12:44.645Z,68.11
2023-04-20T01:13:44.608Z,69.86
2023-04-20T01:14:44.580Z,68.52
2023-04-20T01:15:44.585Z,67.70
2023-04-20T01:16:44.566Z,67.25
2023-04-20T01:17:44.598Z,67.70
2023-04-20T01:18:44.557Z,67.18
2023-04-20T01:19:44.514Z,67.15
2023-04-20T01:20:44.498Z,65.71
2023-04-20T01:21:44.489Z,65.61
2023-04-20T01:22:44.472Z,65.61
2023-04-20T01:23:44.476Z,65.71
2023-04-20T01:24:44.484Z,66.33
2023-04-20T01:25:44.474Z,67.22
2023-04-20T01:26:44.430Z,67.22
2023-04-20T01:27:44.420Z,65.58
2023-04-20T01:28:44.413Z,65.58
2023-04-20T01:29:44.423Z,65.37
2023-04-20T01:30:44.407Z,65.89
2023-04-20T01:31:44.418Z,65.89
2023-04-20T01:32:44.484Z,66.30
2023-04-20T01:33:44.431Z,65.89
2023-04-20T01:34:44.380Z,66.30
2023-04-20T01:35:44.362Z,67.02
2023-04-20T01:36:44.389Z,65.58
2023-04-20T01:37:44.328Z,65.89
2023-04-20T01:38:44.327Z,66.61
2023-04-20T01:39:44.323Z,65.99
2023-04-20T01:40:44.285Z,65.89
2023-04-20T01:41:44.314Z,66.50
2023-04-20T01:42:44.261Z,66.40
2023-04-20T01:43:44.292Z,67.22
2023-04-20T01:44:44.245Z,66.30
2023-04-20T01:45:44.243Z,66.71
2023-04-20T01:46:44.290Z,67.53
2023-04-20T01:47:44.283Z,67.30
2023-04-20T01:48:44.194Z,67.09
2023-04-20T01:49:44.239Z,66.71
2023-04-20T01:50:44.176Z,65.89
2023-04-20T01:51:44.206Z,66.40
2023-04-20T01:52:44.158Z,67.12
2023-04-20T01:53:44.162Z,67.33
2023-04-20T01:54:44.137Z,67.02
2023-04-20T01:55:44.129Z,66.88
2023-04-20T01:56:44.111Z,67.40
2023-04-20T01:57:44.129Z,67.09
2023-04-20T01:58:44.106Z,65.44
2023-04-20T01:59:44.081Z,67.09
2023-04-20T02:00:44.102Z,66.37
2023-04-20T02:01:44.075Z,66.61
2023-04-20T02:02:44.362Z,66.37
2023-04-20T02:03:44.215Z,65.89
2023-04-20T02:04:44.034Z,66.47
2023-04-20T02:05:44.034Z,66.88
2023-04-20T02:06:44.017Z,66.16
2023-04-20T02:07:44.014Z,65.44
2023-04-20T02:08:43.991Z,66.19
2023-04-20T02:09:43.969Z,66.06
2023-04-20T02:10:43.977Z,66.78
2023-04-20T02:11:43.950Z,66.88
2023-04-20T02:12:43.982Z,66.37
2023-04-20T02:13:43.961Z,65.55
2023-04-20T02:14:43.930Z,66.67
2023-04-20T02:15:43.922Z,66.88
2023-04-20T02:16:43.907Z,66.27
2023-04-20T02:17:43.927Z,66.47
2023-04-20T02:18:43.883Z,66.06
2023-04-20T02:19:43.862Z,66.16
2023-04-20T02:20:43.860Z,65.86
2023-04-20T02:21:43.852Z,66.47
2023-04-20T02:22:43.863Z,66.88
2023-04-20T02:23:43.857Z,67.19
2023-04-20T02:24:43.861Z,66.27
2023-04-20T02:25:43.859Z,66.58
2023-04-20T02:26:43.812Z,66.78
2023-04-20T02:27:43.804Z,65.92
2023-04-20T02:28:43.757Z,66.47
2023-04-20T02:29:43.830Z,66.99
2023-04-20T02:30:43.758Z,67.36
2023-04-20T02:31:43.796Z,66.78
2023-04-20T02:32:43.825Z,68.22
2023-04-20T02:33:43.723Z,66.88
2023-04-20T02:34:43.708Z,65.86
2023-04-20T02:35:43.730Z,67.09
2023-04-20T02:36:43.730Z,67.60
2023-04-20T02:37:43.675Z,67.60
2023-04-20T02:38:43.650Z,65.75
2023-04-20T02:39:43.648Z,66.37
2023-04-20T02:40:43.642Z,66.06
2023-04-20T02:41:43.625Z,66.27
2023-04-20T02:42:43.639Z,66.16
2023-04-20T02:43:43.600Z,66.19
2023-04-20T02:44:43.624Z,65.55
2023-04-20T02:45:43.598Z,65.86
2023-04-20T02:46:43.618Z,66.06
2023-04-20T02:47:43.588Z,66.47
2023-04-20T02:48:43.568Z,66.16
2023-04-20T02:49:43.548Z,66.06
2023-04-20T02:50:43.533Z,67.81
2023-04-20T02:51:43.516Z,67.91
2023-04-20T02:52:43.551Z,67.81
2023-04-20T02:53:43.533Z,67.30
2023-04-20T02:54:43.503Z,66.67
2023-04-20T02:55:43.480Z,68.43
2023-04-20T02:56:43.460Z,68.94
2023-04-20T02:57:43.459Z,66.88
2023-04-20T02:58:43.458Z,67.40
2023-04-20T02:59:43.420Z,67.71
2023-04-20T03:00:43.423Z,66.88
2023-04-20T03:01:43.461Z,66.99
2023-04-20T03:02:43.492Z,65.86
2023-04-20T03:03:43.736Z,66.03
2023-04-20T03:04:43.689Z,66.88
2023-04-20T03:05:43.382Z,67.40
2023-04-20T03:06:43.340Z,66.96
2023-04-20T03:07:43.339Z,67.06
2023-04-20T03:08:43.356Z,69.63
2023-04-20T03:09:43.323Z,69.73
2023-04-20T03:10:43.308Z,71.72
2023-04-20T03:11:43.294Z,72.44
2023-04-20T03:12:43.283Z,74.12
2023-04-20T03:13:43.308Z,75.05
2023-04-20T03:14:43.257Z,74.98
2023-04-20T03:15:43.272Z,74.02
2023-04-20T03:16:43.551Z,71.89
2023-04-20T03:17:43.281Z,70.86
2023-04-20T03:18:43.220Z,71.27
2023-04-20T03:19:43.245Z,71.17
2023-04-20T03:20:43.215Z,71.37
2023-04-20T03:21:43.207Z,72.81
2023-04-20T03:22:43.191Z,73.02
2023-04-20T03:23:43.169Z,73.23
2023-04-20T03:24:43.149Z,73.54
2023-04-20T03:25:43.139Z,73.64
2023-04-20T03:26:43.146Z,74.26
2023-04-20T03:27:43.157Z,75.70
2023-04-20T03:28:43.129Z,75.70
2023-04-20T03:29:43.094Z,75.60
2023-04-20T03:30:43.082Z,74.77
2023-04-20T03:31:43.158Z,73.43
2023-04-20T03:32:43.097Z,74.26
2023-04-20T03:33:43.108Z,75.12
2023-04-20T03:34:43.076Z,75.84
2023-04-20T03:35:43.035Z,74.71
2023-04-20T03:36:43.010Z,74.91
2023-04-20T03:37:43.026Z,77.48
2023-04-20T03:38:43.019Z,78.83
2023-04-20T03:39:42.998Z,78.93
2023-04-20T03:40:42.992Z,79.44
2023-04-20T03:41:42.962Z,79.44
2023-04-20T03:42:42.948Z,79.55
2023-04-20T03:43:42.947Z,79.86
2023-04-20T03:44:42.947Z,79.86
2023-04-20T03:45:42.964Z,79.75
2023-04-20T03:46:42.921Z,80.16
2023-04-20T03:47:42.920Z,80.47
2023-04-20T03:48:42.880Z,80.79
2023-04-20T03:49:42.907Z,80.68
2023-04-20T03:50:42.861Z,81.30
2023-04-20T03:51:42.851Z,81.03
2023-04-20T03:52:42.852Z,80.10
2023-04-20T03:53:42.842Z,80.30
2023-04-20T03:54:42.845Z,80.72
2023-04-20T03:55:42.816Z,81.23
2023-04-20T03:56:42.794Z,80.41
2023-04-20T03:57:42.788Z,80.62
2023-04-20T03:58:42.773Z,80.51
2023-04-20T03:59:42.779Z,81.51
2023-04-20T04:00:42.771Z,81.92
2023-04-20T04:01:42.764Z,82.33
2023-04-20T04:02:42.920Z,83.05
2023-04-20T04:03:42.839Z,83.87
2023-04-20T04:04:42.773Z,83.56
2023-04-20T04:05:42.777Z,83.98
2023-04-20T04:06:42.720Z,84.91
2023-04-20T04:07:42.680Z,84.70
2023-04-20T04:08:42.668Z,84.59
2023-04-20T04:09:42.661Z,85.63
2023-04-20T04:10:42.642Z,86.24
2023-04-20T04:11:42.708Z,86.35
2023-04-20T04:12:42.659Z,85.94
2023-04-20T04:13:42.625Z,85.63
2023-04-20T04:14:42.624Z,86.35
2023-04-20T04:15:42.591Z,86.49
2023-04-20T04:16:42.626Z,86.66
2023-04-20T04:17:42.629Z,86.70
2023-04-20T04:18:42.558Z,86.15
2023-04-20T04:19:42.548Z,86.29
2023-04-20T04:20:42.545Z,82.98
2023-04-20T04:21:42.566Z,81.65
2023-04-20T04:22:42.517Z,81.58
2023-04-20T04:23:42.574Z,80.86
2023-04-20T04:24:42.494Z,80.44
2023-04-20T04:25:42.552Z,81.27
2023-04-20T04:26:42.500Z,82.10
2023-04-20T04:27:42.477Z,83.23
2023-04-20T04:28:42.451Z,84.33
2023-04-20T04:29:42.520Z,84.01
2023-04-20T04:30:42.433Z,84.33
2023-04-20T04:31:42.511Z,85.67
2023-04-20T04:32:42.473Z,86.29
2023-04-20T04:33:42.402Z,85.46
2023-04-20T04:34:42.408Z,85.77
2023-04-20T04:35:42.432Z,85.67
2023-04-20T04:36:42.392Z,86.39
2023-04-20T04:37:42.380Z,86.60
2023-04-20T04:38:42.360Z,87.93
2023-04-20T04:39:42.346Z,87.83
2023-04-20T04:40:42.324Z,87.83
2023-04-20T04:41:42.321Z,87.52
2023-04-20T04:42:42.313Z,87.73
2023-04-20T04:43:42.292Z,88.56
2023-04-20T04:44:42.298Z,88.96
2023-04-20T04:45:42.291Z,89.22
2023-04-20T04:46:42.355Z,89.79
2023-04-20T04:47:42.293Z,89.94
2023-04-20T04:48:42.420Z,90.14
2023-04-20T04:49:42.227Z,89.52
2023-04-20T04:50:42.219Z,89.52
2023-04-20T04:51:42.201Z,89.52
2023-04-20T04:52:42.234Z,89.62
2023-04-20T04:53:42.208Z,89.52
2023-04-20T04:54:42.212Z,90.04
2023-04-20T04:55:42.159Z,89.83
2023-04-20T04:56:42.155Z,90.76
2023-04-20T04:57:42.177Z,90.35
2023-04-20T04:58:42.139Z,90.55
2023-04-20T04:59:42.115Z,90.55
2023-04-20T05:00:42.118Z,90.66
2023-04-20T05:01:42.102Z,90.66
2023-04-20T05:02:42.264Z,91.28
2023-04-20T05:03:42.242Z,90.55
2023-04-20T05:04:42.163Z,89.87
2023-04-20T05:05:42.045Z,89.56
2023-04-20T05:06:42.064Z,89.15
2023-04-20T05:07:42.058Z,89.87
2023-04-20T05:08:42.024Z,90.19
2023-04-20T05:09:42.026Z,89.73
2023-04-20T05:10:42.026Z,89.22
2023-04-20T05:11:41.990Z,90.14
2023-04-20T05:12:42.003Z,89.62
2023-04-20T05:13:42.036Z,89.83
2023-04-20T05:14:41.950Z,89.94
2023-04-20T05:15:43.842Z,89.73
2023-04-20T05:16:42.015Z,90.14
2023-04-20T05:17:42.010Z,89.62
2023-04-20T05:18:41.934Z,89.94
2023-04-20T05:19:41.927Z,89.22
2023-04-20T05:20:41.905Z,89.11
2023-04-20T05:21:41.885Z,88.76
2023-04-20T05:22:41.862Z,88.76
2023-04-20T05:23:41.869Z,88.04
2023-04-20T05:24:41.853Z,87.21
2023-04-20T05:25:41.874Z,87.73
2023-04-20T05:26:41.841Z,87.52
2023-04-20T05:27:41.811Z,88.45
2023-04-20T05:28:41.795Z,88.18
2023-04-20T05:29:41.785Z,88.14
2023-04-20T05:30:41.793Z,88.45
2023-04-20T05:31:41.830Z,87.73
2023-04-20T05:32:41.854Z,88.24
2023-04-20T05:33:41.789Z,88.35
2023-04-20T05:34:41.756Z,87.83
2023-04-20T05:35:41.719Z,86.70
2023-04-20T05:36:41.807Z,86.29
2023-04-20T05:37:41.697Z,86.53
2023-04-20T05:38:41.723Z,86.53
2023-04-20T05:39:41.674Z,88.18
2023-04-20T05:40:50.751Z,88.29
2023-04-20T05:41:41.699Z,88.49
2023-04-20T05:42:41.709Z,88.90
2023-04-20T05:43:41.659Z,88.96
2023-04-20T05:44:41.717Z,88.90
2023-04-20T05:45:41.778Z,88.76
2023-04-20T05:46:41.695Z,88.96
2023-04-20T05:47:41.630Z,89.17
2023-04-20T05:48:41.624Z,89.58
2023-04-20T05:49:41.598Z,90.00
2023-04-20T05:50:41.578Z,89.79
2023-04-20T05:51:41.565Z,89.58
2023-04-20T05:52:41.598Z,89.48
2023-04-20T05:53:41.562Z,90.00
2023-04-20T05:54:41.512Z,90.31
2023-04-20T05:55:41.509Z,90.72
2023-04-20T05:56:41.587Z,90.61
2023-04-20T05:57:41.485Z,90.72
2023-04-20T05:58:41.497Z,90.31
2023-04-20T05:59:41.576Z,90.51
2023-04-20T06:00:41.478Z,90.66
2023-04-20T06:01:41.495Z,91.28
2023-04-20T06:02:41.629Z,91.32
2023-04-20T06:03:41.648Z,91.94
2023-04-20T06:04:41.671Z,91.73
2023-04-20T06:05:41.654Z,92.46
2023-04-20T06:06:41.403Z,92.25
2023-04-20T06:07:41.443Z,92.51
2023-04-20T06:08:41.367Z,92.10
2023-04-20T06:09:41.378Z,91.52
2023-04-20T06:10:41.354Z,91.07
2023-04-20T06:11:41.369Z,89.52
2023-04-20T06:12:41.360Z,89.62
2023-04-20T06:13:41.333Z,89.22
2023-04-20T06:14:41.419Z,88.90
2023-04-20T06:15:41.573Z,89.94
2023-04-20T06:16:41.328Z,90.14
2023-04-20T06:17:41.644Z,90.55
2023-04-20T06:18:41.319Z,90.66
2023-04-20T06:19:41.262Z,89.58
2023-04-20T06:20:41.242Z,89.58
2023-04-20T06:21:41.235Z,88.76
2023-04-20T06:22:41.242Z,89.28
2023-04-20T06:23:41.263Z,89.28
2023-04-20T06:24:41.217Z,89.17
2023-04-20T06:25:41.186Z,88.56
2023-04-20T06:26:41.182Z,88.56
2023-04-20T06:27:41.171Z,87.93
2023-04-20T06:28:41.243Z,88.08
2023-04-20T06:29:41.204Z,87.83
2023-04-20T06:30:41.145Z,87.63
2023-04-20T06:31:41.240Z,87.32
2023-04-20T06:32:41.168Z,87.83
2023-04-20T06:33:41.132Z,88.04
2023-04-20T06:34:41.097Z,88.14
2023-04-20T06:35:41.148Z,88.10
2023-04-20T06:36:41.067Z,87.90
2023-04-20T06:37:41.055Z,87.73
2023-04-20T06:38:41.081Z,87.48
2023-04-20T06:39:41.033Z,88.04
2023-04-20T06:40:41.050Z,88.31
2023-04-20T06:41:41.023Z,88.14
2023-04-20T06:42:41.010Z,87.59
2023-04-20T06:43:41.013Z,87.69
2023-04-20T06:44:41.178Z,87.79
2023-04-20T06:45:40.970Z,87.79
2023-04-20T06:46:41.104Z,87.79
2023-04-20T06:47:41.060Z,88.10
2023-04-20T06:48:40.951Z,87.99
2023-04-20T06:49:40.924Z,88.31
2023-04-20T06:50:40.960Z,87.99
2023-04-20T06:51:40.922Z,88.92
2023-04-20T06:52:40.962Z,89.89
2023-04-20T06:53:40.933Z,90.00
2023-04-20T06:54:40.974Z,89.44
2023-04-20T06:55:40.881Z,89.03
2023-04-20T06:56:40.849Z,88.96
2023-04-20T06:57:40.844Z,88.45
2023-04-20T06:58:40.835Z,88.31
2023-04-20T06:59:40.847Z,88.35
2023-04-20T07:00:40.900Z,88.96
2023-04-20T07:01:40.865Z,89.58
2023-04-20T07:02:40.891Z,89.17
2023-04-20T07:03:40.959Z,88.96
2023-04-20T07:04:40.821Z,88.76
2023-04-20T07:05:40.742Z,89.17
2023-04-20T07:06:40.775Z,89.79
2023-04-20T07:07:40.747Z,89.44
2023-04-20T07:08:40.731Z,88.76
2023-04-20T07:09:40.698Z,88.20
2023-04-20T07:10:40.706Z,87.69
2023-04-20T07:11:40.708Z,87.59
2023-04-20T07:12:42.841Z,87.17
2023-04-20T07:13:40.712Z,87.79
2023-04-20T07:14:40.657Z,88.10
2023-04-20T07:15:40.636Z,87.79
2023-04-20T07:16:40.769Z,87.79
2023-04-20T07:17:40.659Z,87.93
2023-04-20T07:18:40.634Z,86.76
2023-04-20T07:19:40.603Z,87.63
2023-04-20T07:20:40.629Z,87.93
2023-04-20T07:21:40.574Z,87.59
2023-04-20T07:22:40.599Z,87.69
2023-04-20T07:23:41.476Z,87.63
2023-04-20T07:24:40.570Z,87.11
2023-04-20T07:25:40.521Z,86.29
2023-04-20T07:26:40.564Z,87.93
2023-04-20T07:27:40.555Z,88.04
2023-04-20T07:28:40.525Z,87.73
2023-04-20T07:29:40.508Z,87.73
2023-04-20T07:30:40.473Z,86.90
2023-04-20T07:31:40.508Z,87.83
2023-04-20T07:32:40.522Z,87.87
2023-04-20T07:33:40.492Z,88.14
2023-04-20T07:34:40.431Z,89.58
2023-04-20T07:35:40.418Z,89.83
2023-04-20T07:36:40.503Z,88.08
2023-04-20T07:37:40.751Z,88.70
2023-04-20T07:38:40.379Z,88.49
2023-04-20T07:39:40.406Z,88.86
2023-04-20T07:40:40.408Z,88.96
2023-04-20T07:41:40.348Z,90.20
2023-04-20T07:42:40.502Z,88.96
2023-04-20T07:43:40.442Z,88.76
2023-04-20T07:44:40.345Z,88.76
2023-04-20T07:45:40.369Z,88.56
2023-04-20T07:46:40.304Z,88.76
2023-04-20T07:47:40.335Z,88.76
2023-04-20T07:48:40.499Z,88.86
2023-04-20T07:49:40.284Z,88.96
2023-04-20T07:50:40.256Z,88.65
2023-04-20T07:51:40.236Z,89.32
2023-04-20T07:52:40.323Z,89.48
2023-04-20T07:53:40.241Z,89.89
2023-04-20T07:54:40.244Z,89.38
2023-04-20T07:55:40.199Z,90.00
2023-04-20T07:56:40.201Z,90.00
2023-04-20T07:57:40.186Z,89.58
2023-04-20T07:58:40.210Z,89.89
2023-04-20T07:59:40.181Z,89.48
2023-04-20T08:00:40.165Z,89.48
2023-04-20T08:01:40.189Z,89.75
2023-04-20T08:02:40.298Z,89.48
2023-04-20T08:03:40.378Z,89.75
2023-04-20T08:04:40.558Z,89.75
2023-04-20T08:05:40.252Z,90.06
2023-04-20T08:06:40.117Z,89.85
2023-04-20T08:07:40.119Z,89.69
2023-04-20T08:08:40.118Z,89.69
2023-04-20T08:09:40.095Z,89.07
2023-04-20T08:10:40.056Z,88.45
2023-04-20T08:11:40.071Z,87.63
2023-04-20T08:12:40.027Z,88.04
2023-04-20T08:13:40.141Z,88.35
2023-04-20T08:14:40.051Z,88.56
2023-04-20T08:15:40.005Z,88.86
2023-04-20T08:16:40.105Z,89.07
2023-04-20T08:17:40.033Z,90.00
2023-04-20T08:18:39.974Z,89.79
2023-04-20T08:19:40.480Z,89.48
2023-04-20T08:20:40.268Z,89.89
2023-04-20T08:21:39.921Z,89.17
2023-04-20T08:22:40.044Z,88.72
2023-04-20T08:23:39.911Z,88.76
2023-04-20T08:24:39.887Z,88.96
2023-04-20T08:25:39.870Z,89.07
2023-04-20T08:26:39.938Z,88.65
2023-04-20T08:27:39.907Z,88.45
2023-04-20T08:28:39.899Z,89.07
2023-04-20T08:29:39.851Z,89.75
2023-04-20T08:30:39.847Z,89.13
2023-04-20T08:31:39.823Z,89.17
2023-04-20T08:32:39.865Z,88.96
2023-04-20T08:33:39.808Z,89.13
2023-04-20T08:34:39.841Z,88.96
2023-04-20T08:35:39.783Z,89.23
2023-04-20T08:36:39.827Z,89.75
2023-04-20T08:37:39.786Z,89.03
2023-04-20T08:38:39.749Z,89.85
2023-04-20T08:39:39.731Z,88.62
2023-04-20T08:40:39.722Z,88.10
2023-04-20T08:41:39.709Z,88.20
2023-04-20T08:42:39.673Z,88.41
2023-04-20T08:43:39.742Z,88.41
2023-04-20T08:44:39.661Z,88.82
2023-04-20T08:45:39.659Z,89.28
2023-04-20T08:46:39.717Z,88.76
2023-04-20T08:47:39.680Z,88.96
2023-04-20T08:48:39.649Z,89.48
2023-04-20T08:49:39.625Z,89.85
2023-04-20T08:50:39.687Z,89.85
2023-04-20T08:51:39.584Z,89.13
2023-04-20T08:52:39.631Z,88.72
2023-04-20T08:53:39.633Z,88.72
2023-04-20T08:54:42.837Z,89.03
2023-04-20T08:55:40.562Z,88.72
2023-04-20T08:56:39.601Z,88.51
2023-04-20T08:57:39.607Z,89.03
2023-04-20T08:58:39.502Z,87.99
2023-04-20T08:59:39.535Z,87.90
2023-04-20T09:00:39.526Z,87.90
2023-04-20T09:01:39.643Z,87.90
2023-04-20T09:02:39.616Z,87.69
2023-04-20T09:03:39.579Z,88.41
2023-04-20T09:04:39.543Z,88.92
2023-04-20T09:05:39.449Z,88.31
2023-04-20T09:06:39.430Z,88.82
2023-04-20T09:07:39.401Z,88.72
2023-04-20T09:08:39.520Z,89.40
2023-04-20T09:09:39.388Z,89.81
2023-04-20T09:10:39.373Z,89.75
2023-04-20T09:11:39.363Z,89.50
2023-04-20T09:12:39.358Z,90.12
2023-04-20T09:13:39.354Z,88.26
2023-04-20T09:14:39.344Z,88.74
2023-04-20T09:15:39.341Z,88.84
2023-04-20T09:16:39.451Z,87.34
2023-04-20T09:17:39.401Z,87.81
2023-04-20T09:18:39.314Z,88.23
2023-04-20T09:19:39.280Z,88.80
2023-04-20T09:20:39.325Z,87.77
2023-04-20T09:21:39.270Z,87.46
2023-04-20T09:22:39.252Z,87.42
2023-04-20T09:23:39.265Z,86.50
2023-04-20T09:24:39.289Z,84.34
2023-04-20T09:25:39.214Z,84.50
2023-04-20T09:26:39.287Z,83.68
2023-04-20T09:27:39.188Z,83.27
2023-04-20T09:28:39.512Z,83.37
2023-04-20T09:29:39.176Z,84.50
2023-04-20T09:30:39.150Z,83.48
2023-04-20T09:31:39.183Z,83.89
2023-04-20T09:32:39.157Z,83.78
2023-04-20T09:33:39.234Z,82.76
2023-04-20T09:34:39.104Z,82.96
2023-04-20T09:35:39.125Z,83.58
2023-04-20T09:36:39.089Z,84.44
2023-04-20T09:37:39.100Z,85.57
2023-04-20T09:38:39.067Z,86.15
2023-04-20T09:39:39.066Z,85.53
2023-04-20T09:40:39.119Z,84.30
2023-04-20T09:41:39.088Z,83.99
2023-04-20T09:42:39.040Z,84.64
2023-04-20T09:43:39.008Z,84.54
2023-04-20T09:44:39.032Z,85.36
2023-04-20T09:45:39.047Z,83.45
2023-04-20T09:46:38.976Z,84.64
2023-04-20T09:47:39.063Z,84.07
2023-04-20T09:48:38.973Z,84.69
2023-04-20T09:49:39.012Z,85.36
2023-04-20T09:50:48.511Z,85.47
2023-04-20T09:51:39.931Z,85.43
2023-04-20T09:52:38.954Z,84.50
2023-04-20T09:53:38.974Z,84.34
2023-04-20T09:54:38.902Z,83.62
2023-04-20T09:55:38.909Z,84.13
2023-04-20T09:56:38.895Z,84.13
2023-04-20T09:57:38.885Z,84.75
2023-04-20T09:58:38.852Z,84.64
2023-04-20T09:59:38.843Z,83.37
2023-04-20T10:00:38.880Z,83.48
2023-04-20T10:01:38.886Z,83.37
2023-04-20T10:02:38.952Z,81.62
2023-04-20T10:03:38.990Z,81.83
2023-04-20T10:04:39.052Z,81.83
2023-04-20T10:05:38.789Z,81.21
2023-04-20T10:06:38.825Z,81.21
2023-04-20T10:07:38.754Z,82.04
2023-04-20T10:08:38.776Z,80.19
2023-04-20T10:09:38.738Z,81.21
2023-04-20T10:10:38.721Z,80.53
2023-04-20T10:11:51.801Z,80.33
2023-04-20T10:12:39.762Z,80.43
2023-04-20T10:13:38.698Z,80.74
2023-04-20T10:14:38.691Z,81.15
2023-04-20T10:15:38.669Z,81.15
2023-04-20T10:16:38.666Z,81.25
2023-04-20T10:17:38.749Z,81.15
2023-04-20T10:18:38.762Z,80.74
2023-04-20T10:19:38.620Z,80.84
2023-04-20T10:20:38.637Z,81.39
2023-04-20T10:21:38.602Z,82.48
2023-04-20T10:22:38.590Z,82.48
2023-04-20T10:23:38.611Z,82.69
2023-04-20T10:24:38.678Z,81.35
2023-04-20T10:25:38.587Z,81.35
2023-04-20T10:26:38.551Z,81.32
2023-04-20T10:27:38.548Z,81.90
2023-04-20T10:28:38.559Z,81.59
2023-04-20T10:29:38.551Z,81.18
2023-04-20T10:30:38.689Z,81.55
2023-04-20T10:31:38.524Z,81.24
2023-04-20T10:32:38.531Z,81.45
2023-04-20T10:33:38.471Z,81.34
2023-04-20T10:34:38.474Z,80.93
2023-04-20T10:35:38.447Z,80.42
2023-04-20T10:36:38.462Z,78.27
2023-04-20T10:37:38.461Z,80.21
2023-04-20T10:38:38.429Z,80.83
2023-04-20T10:39:38.402Z,80.52
2023-04-20T10:40:38.389Z,80.93
2023-04-20T10:41:38.390Z,80.05
2023-04-20T10:42:38.364Z,79.29
2023-04-20T10:43:38.410Z,78.30
2023-04-20T10:44:38.363Z,79.53
2023-04-20T10:45:38.335Z,80.15
2023-04-20T10:46:38.410Z,80.25
2023-04-20T10:47:38.350Z,80.21
2023-04-20T10:48:38.350Z,78.27
2023-04-20T10:49:38.329Z,78.64
2023-04-20T10:50:38.286Z,79.46
2023-04-20T10:51:38.292Z,77.85
2023-04-20T10:52:38.259Z,78.64
2023-04-20T10:53:38.269Z,78.23
2023-04-20T10:54:38.260Z,77.68
2023-04-20T10:55:38.271Z,77.68
2023-04-20T10:56:38.322Z,76.75
2023-04-20T10:57:38.210Z,75.87
2023-04-20T10:58:38.210Z,76.55
2023-04-20T10:59:38.206Z,78.60
2023-04-20T11:00:38.192Z,77.68
2023-04-20T11:01:38.189Z,77.26
2023-04-20T11:02:38.356Z,78.09
2023-04-20T11:03:38.305Z,76.79
2023-04-20T11:04:38.170Z,76.89
2023-04-20T11:05:38.117Z,76.79
2023-04-20T11:06:38.120Z,76.62
2023-04-20T11:07:38.095Z,77.00
2023-04-20T11:08:38.123Z,77.20
2023-04-20T11:09:38.078Z,77.92
2023-04-20T11:10:38.071Z,75.70
2023-04-20T11:11:38.074Z,76.21
2023-04-20T11:12:38.032Z,76.72
2023-04-20T11:13:38.024Z,77.13
2023-04-20T11:14:38.029Z,78.06
2023-04-20T11:15:38.016Z,77.85
2023-04-20T11:16:49.539Z,77.95
2023-04-20T11:17:39.026Z,78.57
2023-04-20T11:18:37.969Z,79.29
2023-04-20T11:19:37.983Z,77.95
2023-04-20T11:20:38.133Z,78.64
2023-04-20T11:21:37.959Z,78.33
2023-04-20T11:22:37.927Z,78.27
2023-04-20T11:23:37.924Z,77.71
2023-04-20T11:24:37.901Z,75.97
2023-04-20T11:25:37.895Z,76.28
2023-04-20T11:26:37.954Z,75.76
2023-04-20T11:27:37.893Z,76.28
2023-04-20T11:28:37.863Z,74.63
2023-04-20T11:29:37.854Z,76.17
2023-04-20T11:30:37.833Z,76.45
2023-04-20T11:31:37.856Z,75.01
2023-04-20T11:32:38.089Z,76.34
2023-04-20T11:33:37.859Z,74.70
2023-04-20T11:34:37.810Z,74.66
2023-04-20T11:35:37.803Z,75.15
2023-04-20T11:36:37.792Z,73.85
2023-04-20T11:37:37.787Z,74.98
2023-04-20T11:38:37.807Z,74.22
2023-04-20T11:39:37.810Z,74.63
2023-04-20T11:40:45.582Z,74.84
2023-04-20T11:41:37.724Z,73.91
2023-04-20T11:42:37.746Z,73.95
2023-04-20T11:43:37.703Z,75.28
2023-04-20T11:44:37.691Z,74.46
2023-04-20T11:45:37.721Z,74.46
2023-04-20T11:46:37.777Z,75.45
2023-04-20T11:47:37.705Z,74.26
2023-04-20T11:48:37.748Z,74.70
2023-04-20T11:49:37.674Z,74.49
2023-04-20T11:50:38.578Z,75.01
2023-04-20T11:51:37.611Z,75.90
2023-04-20T11:52:37.640Z,76.20
2023-04-20T11:53:37.584Z,76.31
2023-04-20T11:54:37.592Z,76.00
2023-04-20T11:55:37.589Z,73.74
2023-04-20T11:56:37.582Z,73.61
2023-04-20T11:57:37.588Z,73.81
2023-04-20T11:58:37.529Z,75.42
2023-04-20T11:59:37.535Z,74.94
2023-04-20T12:00:37.534Z,73.88
2023-04-20T12:01:37.523Z,72.86
2023-04-20T12:02:37.641Z,73.47
2023-04-20T12:03:37.592Z,73.19
2023-04-20T12:04:37.581Z,73.81
2023-04-20T12:05:37.517Z,73.36
2023-04-20T12:06:37.443Z,72.58
2023-04-20T12:07:37.456Z,73.19
2023-04-20T12:08:37.422Z,73.54
2023-04-20T12:09:37.451Z,74.63
2023-04-20T12:10:37.420Z,75.01
2023-04-20T12:11:37.479Z,73.68
2023-04-20T12:12:37.381Z,73.13
2023-04-20T12:13:37.369Z,72.41
2023-04-20T12:14:37.366Z,73.06
2023-04-20T12:15:37.394Z,72.55
2023-04-20T12:16:37.425Z,71.42
2023-04-20T12:17:37.350Z,71.39
2023-04-20T12:18:37.324Z,72.61
2023-04-20T12:19:37.354Z,70.77
2023-04-20T12:20:37.332Z,71.15
2023-04-20T12:21:37.300Z,71.66
2023-04-20T12:22:37.328Z,71.36
2023-04-20T12:23:37.261Z,69.89
2023-04-20T12:24:37.269Z,69.96
2023-04-20T12:25:37.253Z,69.55
2023-04-20T12:26:40.900Z,69.21
2023-04-20T12:27:37.228Z,69.89
2023-04-20T12:28:37.484Z,69.48
2023-04-20T12:29:37.210Z,68.16
2023-04-20T12:30:37.188Z,68.49
2023-04-20T12:31:37.289Z,69.31
2023-04-20T12:32:37.199Z,69.45
2023-04-20T12:33:37.204Z,69.11
2023-04-20T12:34:37.156Z,68.32
2023-04-20T12:35:37.137Z,69.58
2023-04-20T12:36:37.241Z,70.57
2023-04-20T12:37:37.106Z,69.34
2023-04-20T12:38:37.120Z,68.63
2023-04-20T12:39:37.111Z,69.34
2023-04-20T12:40:37.072Z,69.65
2023-04-20T12:41:37.069Z,69.45
2023-04-20T12:42:37.055Z,69.14
2023-04-20T12:43:37.051Z,68.01
2023-04-20T12:44:37.087Z,69.55
2023-04-20T12:45:37.034Z,69.24
2023-04-20T12:46:37.029Z,69.21
2023-04-20T12:47:37.030Z,69.21
2023-04-20T12:48:37.004Z,69.11
2023-04-20T12:49:36.973Z,67.16
2023-04-20T12:50:37.056Z,67.91
2023-04-20T12:51:36.967Z,68.22
2023-04-20T12:52:36.988Z,68.70